Time;durP1;ratioP1;P1;durP2;ratioP2;P2;SDS_P1;SDS_P2;PMS_P1;PMS_P2;Temp;Humidity;BMP_temperature;BMP_pressure;BME280_temperature;BME280_humidity;BME280_pressure;Samples;Min_cycle;Max_cycle;Signal;HPM_P1;HPM_P2
2022/09/10 00:00:21;;;;;;;10.43;6.25;;;16.10;99.90;;;;;;5103521;27;37816;-57
2022/09/10 00:02:50;;;;;;;8.57;6.50;;;16.20;99.90;;;;;;5104479;27;40220;-57
2022/09/10 00:05:18;;;;;;;12.18;6.22;;;16.20;99.90;;;;;;5103616;27;37815;-57
2022/09/10 00:07:46;;;;;;;13.13;6.55;;;16.20;99.90;;;;;;5104741;27;37248;-57
2022/09/10 00:10:13;;;;;;;9.05;5.63;;;16.20;99.90;;;;;;5105323;27;36446;-57
2022/09/10 00:12:41;;;;;;;9.98;7.10;;;16.20;99.90;;;;;;5104322;27;37715;-57
2022/09/10 00:15:10;;;;;;;8.45;6.50;;;16.20;99.90;;;;;;5105180;27;37726;-57
2022/09/10 00:17:37;;;;;;;11.52;8.30;;;16.30;99.90;;;;;;5104499;27;37440;-57
2022/09/10 00:20:08;;;;;;;12.63;7.50;;;16.30;99.90;;;;;;5106816;27;37035;-57
2022/09/10 00:22:35;;;;;;;14.55;8.63;;;16.30;99.90;;;;;;5106597;27;40167;-57
2022/09/10 00:25:02;;;;;;;11.38;8.60;;;16.30;99.90;;;;;;5107037;27;37615;-57
2022/09/10 00:27:29;;;;;;;11.13;8.77;;;16.40;99.90;;;;;;5105673;27;36249;-57
2022/09/10 00:29:57;;;;;;;14.20;10.57;;;16.40;99.90;;;;;;5106558;27;36741;-57
2022/09/10 00:32:24;;;;;;;14.10;10.40;;;16.50;99.90;;;;;;5106337;27;38639;-57
2022/09/10 00:34:52;;;;;;;12.02;9.00;;;16.50;99.90;;;;;;5105845;27;36535;-57
2022/09/10 00:37:21;;;;;;;12.73;9.65;;;16.50;99.90;;;;;;5106603;27;38272;-57
2022/09/10 00:39:48;;;;;;;10.82;9.35;;;16.50;99.90;;;;;;5106864;27;36614;-57
2022/09/10 00:42:17;;;;;;;13.23;9.85;;;16.50;99.90;;;;;;5107126;27;38391;-57
2022/09/10 00:44:57;;;;;;;14.88;10.20;;;16.50;99.90;;;;;;5107279;27;37077;-56
2022/09/10 00:47:28;;;;;;;14.07;10.02;;;16.50;99.90;;;;;;5106941;27;37378;-57
2022/09/10 00:49:58;;;;;;;13.00;10.02;;;16.60;99.90;;;;;;5109646;27;37085;-57
2022/09/10 00:52:28;;;;;;;12.88;9.10;;;16.60;99.90;;;;;;5110317;27;39741;-57
2022/09/10 00:54:56;;;;;;;12.52;8.95;;;16.60;99.90;;;;;;5109214;27;37727;-56
2022/09/10 00:57:24;;;;;;;11.70;8.80;;;16.60;99.90;;;;;;5110674;27;37640;-57
2022/09/10 00:59:55;;;;;;;12.10;8.43;;;16.60;99.90;;;;;;5110814;27;36566;-57
2022/09/10 01:02:23;;;;;;;13.38;9.20;;;16.60;99.90;;;;;;5108940;27;36374;-57
2022/09/10 01:04:50;;;;;;;11.50;8.85;;;16.60;99.90;;;;;;5108989;27;37761;-57
2022/09/10 01:07:20;;;;;;;11.65;9.35;;;16.60;99.90;;;;;;5110173;27;38342;-57
2022/09/10 01:09:49;;;;;;;10.50;8.38;;;16.60;99.90;;;;;;5110046;27;36433;-57
2022/09/10 01:12:30;;;;;;;11.90;9.18;;;16.60;99.90;;;;;;5110194;27;37566;-57
2022/09/10 01:15:08;;;;;;;13.93;9.60;;;16.60;99.90;;;;;;5110060;27;39987;-57
2022/09/10 01:17:46;;;;;;;12.57;8.35;;;16.60;99.90;;;;;;5110039;27;36439;-57
2022/09/10 01:20:30;;;;;;;14.43;8.85;;;16.50;99.90;;;;;;5110017;27;37758;-57
2022/09/10 01:23:33;;;;;;;17.08;9.45;;;16.50;99.90;;;;;;5110815;27;37619;-57
2022/09/10 01:26:11;;;;;;;11.55;9.20;;;16.50;99.90;;;;;;5071209;27;38029;-57
2022/09/10 01:28:45;;;;;;;13.32;8.90;;;16.50;99.90;;;;;;5108282;27;39620;-56
2022/09/10 01:31:21;;;;;;;13.23;10.27;;;16.50;99.90;;;;;;5106715;27;36698;-57
2022/09/10 01:33:56;;;;;;;14.98;8.52;;;16.50;99.90;;;;;;5107185;27;37565;-57
2022/09/10 01:36:28;;;;;;;13.95;10.15;;;16.50;99.90;;;;;;5108064;27;38229;-57
2022/09/10 01:38:56;;;;;;;13.73;9.68;;;16.50;99.90;;;;;;5108827;27;37470;-57
2022/09/10 01:41:26;;;;;;;16.13;10.25;;;16.50;99.90;;;;;;5109027;27;36878;-57
2022/09/10 01:43:55;;;;;;;13.23;9.95;;;16.60;99.90;;;;;;5110357;27;38151;-57
2022/09/10 01:46:38;;;;;;;15.90;10.52;;;16.50;99.90;;;;;;5109449;27;36603;-57
2022/09/10 01:49:17;;;;;;;15.80;8.48;;;16.60;99.90;;;;;;5108259;27;37689;-57
2022/09/10 01:52:00;;;;;;;11.75;8.48;;;16.50;99.90;;;;;;5110552;27;38155;-57
2022/09/10 01:54:39;;;;;;;13.10;9.50;;;16.50;99.90;;;;;;5109358;27;38147;-57
2022/09/10 01:57:13;;;;;;;11.40;8.98;;;16.50;99.90;;;;;;5108453;27;37709;-57
2022/09/10 01:59:50;;;;;;;15.18;10.02;;;16.50;99.90;;;;;;5108921;27;37157;-57
2022/09/10 02:02:22;;;;;;;14.13;9.80;;;16.50;99.90;;;;;;5107122;27;36594;-57
2022/09/10 02:04:51;;;;;;;16.50;10.88;;;16.50;99.90;;;;;;5108736;27;39476;-57
2022/09/10 02:07:22;;;;;;;14.38;11.35;;;16.50;99.90;;;;;;5108669;27;39312;-57
2022/09/10 02:09:50;;;;;;;14.95;11.80;;;16.50;99.90;;;;;;5108840;27;38752;-57
2022/09/10 02:12:18;;;;;;;18.42;13.80;;;16.50;99.90;;;;;;5109581;27;36858;-57
2022/09/10 02:14:50;;;;;;;20.40;15.18;;;16.50;99.90;;;;;;5109214;27;37421;-57
2022/09/10 02:17:19;;;;;;;24.67;16.63;;;16.50;99.90;;;;;;5106660;27;36303;-57
2022/09/10 02:19:50;;;;;;;22.55;18.08;;;16.50;99.90;;;;;;5109186;27;37310;-57
2022/09/10 02:22:18;;;;;;;20.85;16.23;;;16.50;99.90;;;;;;5109313;27;35607;-57
2022/09/10 02:24:45;;;;;;;27.95;19.63;;;16.50;99.90;;;;;;5109138;27;37813;-57
2022/09/10 02:27:13;;;;;;;23.35;17.08;;;16.40;99.90;;;;;;5108214;27;37859;-57
2022/09/10 02:29:41;;;;;;;23.20;17.80;;;16.50;99.90;;;;;;5108627;27;39140;-57
2022/09/10 02:32:10;;;;;;;26.02;17.23;;;16.50;99.90;;;;;;5107338;27;36656;-57
2022/09/10 02:34:38;;;;;;;22.88;18.58;;;16.50;99.90;;;;;;5108609;27;37641;-57
2022/09/10 02:37:05;;;;;;;20.90;18.55;;;16.50;99.90;;;;;;5108166;27;36386;-57
2022/09/10 02:39:32;;;;;;;22.58;18.45;;;16.50;99.90;;;;;;5108137;27;38532;-57
2022/09/10 02:42:00;;;;;;;20.85;17.77;;;16.60;99.90;;;;;;5108921;27;37812;-57
2022/09/10 02:44:28;;;;;;;26.45;19.88;;;16.60;99.90;;;;;;5108339;27;36351;-57
2022/09/10 02:46:55;;;;;;;24.95;17.83;;;16.60;99.90;;;;;;5107194;27;38016;-57
2022/09/10 02:49:24;;;;;;;23.15;17.85;;;16.60;99.90;;;;;;5105982;27;39782;-57
2022/09/10 02:51:51;;;;;;;22.50;16.92;;;16.60;99.90;;;;;;5108154;27;36983;-57
2022/09/10 02:54:19;;;;;;;21.83;17.90;;;16.50;99.90;;;;;;5107113;27;36438;-57
2022/09/10 02:56:48;;;;;;;27.10;18.05;;;16.60;99.90;;;;;;5107016;27;37689;-57
2022/09/10 02:59:17;;;;;;;21.20;17.35;;;16.60;99.90;;;;;;5106490;27;37244;-57
2022/09/10 03:01:44;;;;;;;20.85;16.83;;;16.60;99.90;;;;;;5106309;27;35752;-57
2022/09/10 03:04:12;;;;;;;20.13;16.42;;;16.60;99.90;;;;;;5106630;27;37709;-57
2022/09/10 03:06:42;;;;;;;21.25;17.27;;;16.60;99.90;;;;;;5107823;27;37895;-57
2022/09/10 03:09:10;;;;;;;21.27;16.20;;;16.60;99.90;;;;;;5107388;27;37792;-57
2022/09/10 03:11:39;;;;;;;19.02;16.50;;;16.60;99.90;;;;;;5107877;27;37315;-57
2022/09/10 03:14:07;;;;;;;23.15;17.25;;;16.50;99.90;;;;;;5107641;27;37430;-57
2022/09/10 03:16:34;;;;;;;20.63;16.10;;;16.60;99.90;;;;;;5108845;27;37383;-57
2022/09/10 03:19:01;;;;;;;25.48;18.42;;;16.50;99.90;;;;;;5107270;27;38014;-57
2022/09/10 03:21:29;;;;;;;21.02;17.83;;;16.50;99.90;;;;;;5108520;27;37134;-57
2022/09/10 03:23:57;;;;;;;23.00;17.67;;;16.50;99.90;;;;;;5107792;27;36725;-57
2022/09/10 03:26:25;;;;;;;25.17;19.55;;;16.50;99.90;;;;;;5107401;27;40165;-57
2022/09/10 03:28:52;;;;;;;24.98;19.35;;;16.50;99.90;;;;;;5107259;27;37062;-58
2022/09/10 03:31:20;;;;;;;22.98;19.13;;;16.50;99.90;;;;;;5107545;27;35715;-57
2022/09/10 03:33:48;;;;;;;23.05;19.25;;;16.50;99.90;;;;;;5108158;27;37173;-57
2022/09/10 03:36:16;;;;;;;25.90;19.52;;;16.50;99.90;;;;;;5107397;27;37689;-57
2022/09/10 03:38:44;;;;;;;25.38;19.70;;;16.50;99.90;;;;;;5108147;27;37219;-57
2022/09/10 03:41:13;;;;;;;25.13;19.98;;;16.50;99.90;;;;;;5107668;27;36757;-57
2022/09/10 03:43:40;;;;;;;26.98;20.40;;;16.50;99.90;;;;;;5107630;27;38392;-57
2022/09/10 03:46:09;;;;;;;23.88;19.40;;;16.50;99.90;;;;;;5108403;27;37624;-57
2022/09/10 03:48:38;;;;;;;25.67;20.55;;;16.50;99.90;;;;;;5107520;27;38872;-57
2022/09/10 03:51:05;;;;;;;24.13;20.42;;;16.50;99.90;;;;;;5107963;27;37815;-57
2022/09/10 03:53:32;;;;;;;30.10;20.02;;;16.50;99.90;;;;;;5106937;27;36331;-57
2022/09/10 03:56:00;;;;;;;29.65;21.10;;;16.50;99.90;;;;;;5107375;27;37585;-57
2022/09/10 03:58:29;;;;;;;26.17;20.92;;;16.50;99.90;;;;;;5104686;27;37251;-57
2022/09/10 04:00:57;;;;;;;25.13;21.20;;;16.50;99.90;;;;;;5106753;27;36863;-57
2022/09/10 04:03:24;;;;;;;26.77;20.45;;;16.50;99.90;;;;;;5108061;27;37353;-57
2022/09/10 04:05:52;;;;;;;30.25;20.95;;;16.50;99.90;;;;;;5107701;27;37869;-57
2022/09/10 04:08:19;;;;;;;26.70;20.77;;;16.50;99.90;;;;;;5107350;27;38057;-57
2022/09/10 04:10:47;;;;;;;25.08;19.92;;;16.50;99.90;;;;;;5106613;27;36724;-57
2022/09/10 04:13:14;;;;;;;25.45;20.73;;;16.50;99.90;;;;;;5106360;27;38183;-57
2022/09/10 04:15:44;;;;;;;22.75;19.02;;;16.50;99.90;;;;;;5107233;27;37569;-57
2022/09/10 04:18:12;;;;;;;25.17;19.73;;;16.50;99.90;;;;;;5107385;27;36378;-57
2022/09/10 04:20:39;;;;;;;27.42;19.55;;;16.50;99.90;;;;;;5104975;27;37063;-57
2022/09/10 04:23:06;;;;;;;23.63;19.75;;;16.50;99.90;;;;;;5107769;27;38607;-57
2022/09/10 04:25:34;;;;;;;27.00;20.73;;;16.40;99.90;;;;;;5108582;27;38698;-57
2022/09/10 04:28:01;;;;;;;24.52;20.27;;;16.50;99.90;;;;;;5109264;27;37451;-57
2022/09/10 04:30:28;;;;;;;25.38;18.77;;;16.40;99.90;;;;;;5110233;27;36657;-57
2022/09/10 04:32:57;;;;;;;27.58;20.70;;;16.40;99.90;;;;;;5111456;27;37649;-57
2022/09/10 04:35:25;;;;;;;23.60;19.63;;;16.40;99.90;;;;;;5109076;27;40211;-57
2022/09/10 04:37:52;;;;;;;24.33;19.27;;;16.40;99.90;;;;;;5110350;27;37598;-57
2022/09/10 04:40:20;;;;;;;25.40;19.88;;;16.40;99.90;;;;;;5109748;27;38046;-57
2022/09/10 04:42:47;;;;;;;25.70;18.50;;;16.40;99.90;;;;;;5110783;27;38294;-57
2022/09/10 04:45:14;;;;;;;25.30;18.45;;;16.40;99.90;;;;;;5111420;27;38772;-57
2022/09/10 04:47:41;;;;;;;24.30;19.00;;;16.40;99.90;;;;;;5110450;27;36187;-57
2022/09/10 04:50:10;;;;;;;25.33;19.67;;;16.40;99.90;;;;;;5111228;27;36975;-57
2022/09/10 04:52:38;;;;;;;23.90;17.67;;;16.40;99.90;;;;;;5110809;27;39941;-57
2022/09/10 04:55:06;;;;;;;24.33;17.83;;;16.30;99.90;;;;;;5108622;27;38412;-57
2022/09/10 04:57:34;;;;;;;24.58;18.80;;;16.30;99.90;;;;;;5110301;27;38415;-57
2022/09/10 05:00:02;;;;;;;26.02;18.58;;;16.30;99.90;;;;;;5109307;27;39356;-57
2022/09/10 05:02:30;;;;;;;23.52;18.38;;;16.30;99.90;;;;;;5110501;27;37266;-57
2022/09/10 05:04:57;;;;;;;25.70;18.80;;;16.30;99.90;;;;;;5110508;27;37918;-57
2022/09/10 05:07:25;;;;;;;22.75;18.23;;;16.20;99.90;;;;;;5109779;27;37585;-57
2022/09/10 05:09:53;;;;;;;24.00;18.65;;;16.30;99.90;;;;;;5110552;27;38727;-57
2022/09/10 05:12:21;;;;;;;25.73;18.88;;;16.20;99.90;;;;;;5110864;27;39230;-57
2022/09/10 05:14:48;;;;;;;27.42;19.42;;;16.30;99.90;;;;;;5110804;27;37393;-57
2022/09/10 05:17:16;;;;;;;24.75;18.88;;;16.30;99.90;;;;;;5111556;27;37510;-57
2022/09/10 05:19:43;;;;;;;25.15;19.98;;;16.30;99.90;;;;;;5109105;27;37504;-57
2022/09/10 05:22:10;;;;;;;26.65;19.30;;;16.30;99.90;;;;;;5111311;27;37885;-57
2022/09/10 05:24:39;;;;;;;24.95;19.40;;;16.30;99.90;;;;;;5110279;27;38262;-57
2022/09/10 05:27:06;;;;;;;26.27;18.00;;;16.30;99.90;;;;;;5108961;27;37622;-56
2022/09/10 05:29:33;;;;;;;23.40;17.90;;;16.30;99.90;;;;;;5110837;27;37446;-57
2022/09/10 05:32:01;;;;;;;24.05;19.23;;;16.30;99.90;;;;;;5110958;27;38986;-57
2022/09/10 05:34:28;;;;;;;25.63;17.90;;;16.30;99.90;;;;;;5109103;27;37955;-57
2022/09/10 05:36:56;;;;;;;24.65;18.60;;;16.30;99.90;;;;;;5109879;27;36467;-57
2022/09/10 05:39:23;;;;;;;24.75;18.75;;;16.30;99.90;;;;;;5110251;27;37294;-57
2022/09/10 05:41:54;;;;;;;26.70;19.20;;;16.30;99.90;;;;;;5109744;27;38835;-57
2022/09/10 05:44:21;;;;;;;23.88;17.83;;;16.30;99.90;;;;;;5108556;27;39611;-57
2022/09/10 05:46:48;;;;;;;25.13;17.70;;;16.30;99.90;;;;;;5109694;27;37570;-57
2022/09/10 05:49:16;;;;;;;24.45;17.50;;;16.30;99.90;;;;;;5109125;27;37758;-57
2022/09/10 05:51:43;;;;;;;24.75;17.45;;;16.30;99.90;;;;;;5108594;27;36523;-57
2022/09/10 05:54:11;;;;;;;24.05;18.20;;;16.40;99.90;;;;;;5110669;27;38182;-57
2022/09/10 05:56:38;;;;;;;21.15;16.92;;;16.40;99.90;;;;;;5109145;27;37341;-57
2022/09/10 05:59:08;;;;;;;19.98;16.75;;;16.40;99.90;;;;;;5108819;27;36693;-57
2022/09/10 06:01:36;;;;;;;23.50;17.45;;;16.40;99.90;;;;;;5105736;27;37618;-57
2022/09/10 06:04:04;;;;;;;22.73;17.42;;;16.40;99.90;;;;;;5110568;27;36561;-57
2022/09/10 06:06:31;;;;;;;22.73;17.80;;;16.40;99.90;;;;;;5109930;27;38538;-57
2022/09/10 06:08:59;;;;;;;22.45;17.10;;;16.40;99.90;;;;;;5110495;27;36650;-57
2022/09/10 06:11:26;;;;;;;21.15;17.70;;;16.40;99.90;;;;;;5107864;27;36278;-57
2022/09/10 06:13:53;;;;;;;22.00;16.67;;;16.40;99.90;;;;;;5108812;27;38083;-57
2022/09/10 06:16:22;;;;;;;22.67;16.65;;;16.40;99.90;;;;;;5107735;27;37487;-57
2022/09/10 06:18:49;;;;;;;22.13;16.05;;;16.40;99.90;;;;;;5107215;27;36876;-57
2022/09/10 06:21:18;;;;;;;21.30;17.73;;;16.40;99.90;;;;;;5107225;27;36238;-57
2022/09/10 06:23:46;;;;;;;23.50;17.00;;;16.50;99.90;;;;;;5107954;27;37618;-57
2022/09/10 06:26:15;;;;;;;20.17;16.52;;;16.50;99.90;;;;;;5106958;27;38058;-57
2022/09/10 06:28:43;;;;;;;22.40;16.73;;;16.40;99.90;;;;;;5104770;27;36181;-57
2022/09/10 06:31:15;;;;;;;18.85;15.75;;;16.50;99.90;;;;;;5106460;27;36339;-57
2022/09/10 06:33:45;;;;;;;21.55;16.63;;;16.50;99.90;;;;;;5108240;27;38219;-57
2022/09/10 06:36:13;;;;;;;20.60;15.18;;;16.50;99.90;;;;;;5106840;27;37543;-57
2022/09/10 06:38:42;;;;;;;22.95;16.50;;;16.50;99.90;;;;;;5108756;27;36604;-57
2022/09/10 06:41:15;;;;;;;18.40;15.20;;;16.50;99.90;;;;;;5107091;27;38494;-57
2022/09/10 06:43:43;;;;;;;23.70;16.75;;;16.50;99.90;;;;;;5098679;27;38144;-57
2022/09/10 06:46:13;;;;;;;21.00;16.30;;;16.60;99.90;;;;;;5107514;27;36334;-57
2022/09/10 06:48:41;;;;;;;22.52;16.30;;;16.60;99.90;;;;;;5106933;27;36670;-57
2022/09/10 06:51:12;;;;;;;20.85;16.30;;;16.60;99.90;;;;;;5099907;27;38463;-57
2022/09/10 06:53:40;;;;;;;20.58;16.85;;;16.60;99.90;;;;;;5104470;27;37525;-57
2022/09/10 06:56:10;;;;;;;22.02;17.10;;;16.60;99.90;;;;;;5103610;27;38450;-57
2022/09/10 06:58:38;;;;;;;20.70;16.05;;;16.60;99.90;;;;;;5103293;27;37229;-57
2022/09/10 07:01:07;;;;;;;27.00;17.00;;;16.60;99.90;;;;;;5102789;27;37565;-57
2022/09/10 07:03:35;;;;;;;23.17;15.90;;;16.70;99.90;;;;;;5104223;27;38600;-57
2022/09/10 07:06:04;;;;;;;20.65;15.35;;;16.60;99.90;;;;;;5103035;27;38147;-57
2022/09/10 07:08:33;;;;;;;20.02;15.57;;;16.70;99.90;;;;;;5103344;27;37513;-57
2022/09/10 07:11:01;;;;;;;24.17;15.40;;;16.70;99.90;;;;;;5104212;27;37477;-56
2022/09/10 07:13:29;;;;;;;24.67;16.15;;;16.70;99.90;;;;;;5100270;27;37717;-57
2022/09/10 07:15:56;;;;;;;22.00;16.40;;;16.70;99.90;;;;;;5101991;27;37381;-57
2022/09/10 07:18:24;;;;;;;23.23;16.42;;;16.70;99.90;;;;;;5103783;27;37699;-57
2022/09/10 07:20:52;;;;;;;23.88;16.65;;;16.70;99.90;;;;;;5102893;27;37649;-57
2022/09/10 07:23:21;;;;;;;28.48;17.85;;;16.70;99.90;;;;;;5103387;27;39124;-57
2022/09/10 07:25:50;;;;;;;22.45;15.57;;;16.70;99.90;;;;;;5101867;27;37532;-57
2022/09/10 07:28:18;;;;;;;24.58;16.85;;;16.80;99.90;;;;;;5101959;27;36721;-57
2022/09/10 07:30:46;;;;;;;26.45;17.63;;;16.80;99.90;;;;;;5101448;27;37649;-57
2022/09/10 07:33:13;;;;;;;25.80;17.63;;;16.80;99.90;;;;;;5102447;27;39734;-57
2022/09/10 07:35:40;;;;;;;26.48;17.88;;;16.80;99.90;;;;;;5103384;27;38009;-57
2022/09/10 07:38:14;;;;;;;25.92;16.83;;;16.90;99.90;;;;;;5103794;27;36525;-57
2022/09/10 07:40:42;;;;;;;26.20;16.85;;;16.80;99.90;;;;;;5095846;27;37402;-57
2022/09/10 07:43:11;;;;;;;28.25;18.13;;;16.80;99.90;;;;;;5095499;27;36668;-57
2022/09/10 07:45:40;;;;;;;27.00;17.90;;;16.80;99.90;;;;;;5097276;27;37373;-57
2022/09/10 07:48:07;;;;;;;27.67;18.35;;;16.80;99.90;;;;;;5098449;27;38150;-57
2022/09/10 07:50:35;;;;;;;26.27;16.40;;;16.80;99.90;;;;;;5097385;27;39766;-57
2022/09/10 07:53:02;;;;;;;20.77;16.83;;;16.80;99.90;;;;;;5096228;27;37997;-57
2022/09/10 07:55:30;;;;;;;23.88;15.38;;;16.80;99.90;;;;;;5097991;27;36444;-57
2022/09/10 07:57:57;;;;;;;26.67;16.60;;;16.80;99.90;;;;;;5100028;27;36349;-57
2022/09/10 08:00:26;;;;;;;26.02;17.25;;;16.90;99.90;;;;;;5100168;27;39410;-57
2022/09/10 08:02:53;;;;;;;21.63;16.42;;;16.90;99.90;;;;;;5099973;27;37803;-57
2022/09/10 08:05:21;;;;;;;27.25;17.67;;;16.90;99.90;;;;;;5101615;27;36213;-57
2022/09/10 08:07:48;;;;;;;22.73;16.00;;;16.90;99.90;;;;;;5099254;27;37337;-57
2022/09/10 08:10:15;;;;;;;26.58;17.33;;;16.90;99.90;;;;;;5102099;27;38428;-57
2022/09/10 08:12:43;;;;;;;24.67;16.15;;;16.90;99.90;;;;;;5103135;27;37279;-57
2022/09/10 08:15:10;;;;;;;27.02;17.80;;;16.90;99.90;;;;;;5102492;27;38109;-57
2022/09/10 08:17:39;;;;;;;29.92;17.92;;;16.90;99.90;;;;;;5102405;27;38533;-57
2022/09/10 08:20:08;;;;;;;24.02;17.30;;;16.90;99.90;;;;;;5101880;27;37614;-57
2022/09/10 08:22:36;;;;;;;26.25;17.30;;;16.90;99.90;;;;;;5102151;27;39463;-57
2022/09/10 08:25:04;;;;;;;22.80;16.58;;;17.00;99.90;;;;;;5099145;27;38671;-57
2022/09/10 08:27:33;;;;;;;22.77;16.77;;;16.90;99.90;;;;;;5101979;27;35636;-57
2022/09/10 08:30:00;;;;;;;24.77;16.73;;;17.00;99.90;;;;;;5102687;27;37550;-57
2022/09/10 08:32:30;;;;;;;25.00;17.02;;;17.00;99.90;;;;;;5098637;27;37256;-57
2022/09/10 08:34:59;;;;;;;25.88;17.77;;;17.00;99.90;;;;;;5099885;27;38498;-57
2022/09/10 08:37:29;;;;;;;22.98;16.08;;;17.00;99.90;;;;;;5100605;27;36874;-57
2022/09/10 08:39:57;;;;;;;23.60;17.20;;;17.00;99.90;;;;;;5100138;27;38981;-57
2022/09/10 08:42:31;;;;;;;24.63;17.38;;;17.00;99.90;;;;;;5100104;27;37454;-57
2022/09/10 08:45:03;;;;;;;26.45;17.52;;;17.00;99.90;;;;;;5100463;27;37573;-57
2022/09/10 08:47:39;;;;;;;23.88;17.63;;;17.00;99.90;;;;;;5099892;27;39231;-57
2022/09/10 08:50:17;;;;;;;27.17;18.58;;;17.00;99.90;;;;;;5099608;27;36319;-57
2022/09/10 08:52:50;;;;;;;22.92;16.55;;;17.00;99.90;;;;;;5099275;27;36552;-57
2022/09/10 08:55:26;;;;;;;27.17;17.05;;;17.00;99.90;;;;;;5099825;27;37410;-57
2022/09/10 08:57:59;;;;;;;23.80;16.30;;;17.00;99.90;;;;;;5102084;27;37478;-57
2022/09/10 09:00:32;;;;;;;22.42;16.27;;;17.10;99.90;;;;;;5102475;27;36846;-57
2022/09/10 09:03:04;;;;;;;26.52;17.38;;;17.10;99.90;;;;;;5097801;27;38088;-57
2022/09/10 09:05:44;;;;;;;26.33;16.30;;;17.10;99.90;;;;;;5099374;27;37312;-57
2022/09/10 09:08:12;;;;;;;28.38;17.77;;;17.10;99.90;;;;;;5099995;27;36475;-57
2022/09/10 09:10:48;;;;;;;28.92;17.42;;;17.10;99.90;;;;;;5099958;27;37582;-57
2022/09/10 09:13:53;;;;;;;22.40;16.17;;;17.10;99.90;;;;;;5100532;27;37704;-57
2022/09/10 09:16:41;;;;;;;23.67;17.45;;;17.10;99.90;;;;;;5099185;27;37188;-57
2022/09/10 09:19:21;;;;;;;26.55;17.65;;;17.10;99.90;;;;;;5100683;27;36598;-57
2022/09/10 09:21:53;;;;;;;22.67;16.17;;;17.10;99.90;;;;;;5100126;27;37350;-57
2022/09/10 09:24:24;;;;;;;23.27;16.85;;;17.10;99.90;;;;;;5101351;27;40381;-57
2022/09/10 09:26:55;;;;;;;24.88;16.13;;;17.10;99.90;;;;;;5100390;27;37772;-57
2022/09/10 09:29:27;;;;;;;28.70;15.93;;;17.10;99.90;;;;;;5098326;27;36844;-57
2022/09/10 09:31:58;;;;;;;27.15;16.55;;;17.20;99.90;;;;;;5099748;27;39427;-57
2022/09/10 09:34:31;;;;;;;23.02;15.90;;;17.20;99.90;;;;;;5097608;27;38194;-57
2022/09/10 09:37:04;;;;;;;26.67;16.63;;;17.20;99.90;;;;;;5100116;27;38126;-57
2022/09/10 09:39:38;;;;;;;20.48;15.20;;;17.30;99.90;;;;;;5099214;27;36886;-57
2022/09/10 09:42:13;;;;;;;19.63;15.27;;;17.30;99.90;;;;;;5100146;27;37355;-57
2022/09/10 09:44:47;;;;;;;22.30;14.45;;;17.30;99.90;;;;;;5099027;27;37510;-57
2022/09/10 09:47:14;;;;;;;23.95;16.52;;;17.30;99.90;;;;;;5098835;27;37614;-57
2022/09/10 09:49:42;;;;;;;23.20;15.98;;;17.30;99.90;;;;;;5098972;27;35527;-58
2022/09/10 09:52:18;;;;;;;22.70;15.57;;;17.30;99.90;;;;;;5100425;27;38123;-60
2022/09/10 09:54:51;;;;;;;23.08;16.77;;;17.30;99.90;;;;;;5102191;27;37115;-58
2022/09/10 09:57:20;;;;;;;23.83;15.40;;;17.30;99.90;;;;;;5099686;27;37608;-59
2022/09/10 09:59:48;;;;;;;22.17;15.95;;;17.30;99.90;;;;;;5101101;27;38672;-58
2022/09/10 10:02:18;;;;;;;23.63;15.40;;;17.30;99.90;;;;;;5100155;27;39443;-59
2022/09/10 10:05:03;;;;;;;23.98;15.23;;;17.30;99.90;;;;;;5100725;27;37763;-59
2022/09/10 10:07:33;;;;;;;21.33;15.02;;;17.40;99.90;;;;;;5101070;27;37592;-59
2022/09/10 10:10:02;;;;;;;25.08;15.20;;;17.40;99.90;;;;;;5100600;27;38774;-59
2022/09/10 10:12:31;;;;;;;19.02;14.02;;;17.40;99.90;;;;;;5098762;27;37635;-59
2022/09/10 10:14:59;;;;;;;24.05;15.05;;;17.40;99.90;;;;;;5100560;27;38471;-59
2022/09/10 10:17:32;;;;;;;19.52;13.45;;;17.40;99.90;;;;;;5099946;27;37158;-59
2022/09/10 10:20:03;;;;;;;19.83;13.73;;;17.50;99.90;;;;;;5101277;27;37182;-59
2022/09/10 10:22:32;;;;;;;21.58;14.90;;;17.50;99.90;;;;;;5099546;27;39905;-59
2022/09/10 10:25:01;;;;;;;20.48;14.35;;;17.60;99.90;;;;;;5099992;27;37380;-60
2022/09/10 10:27:32;;;;;;;26.92;15.80;;;17.60;99.90;;;;;;5099013;27;36441;-59
2022/09/10 10:30:02;;;;;;;19.02;14.30;;;17.60;99.90;;;;;;5100400;27;37420;-59
2022/09/10 10:32:41;;;;;;;21.35;14.18;;;17.70;99.90;;;;;;5098766;27;37707;-59
2022/09/10 10:35:26;;;;;;;24.90;14.95;;;17.70;99.90;;;;;;5100486;27;37456;-59
2022/09/10 10:38:12;;;;;;;19.05;13.98;;;17.70;99.90;;;;;;5097799;27;39542;-60
2022/09/10 10:40:47;;;;;;;18.63;13.05;;;17.80;99.90;;;;;;5098881;27;35837;-59
2022/09/10 10:43:24;;;;;;;23.33;14.45;;;17.80;99.90;;;;;;5098265;27;37339;-59
2022/09/10 10:45:59;;;;;;;24.00;15.07;;;17.80;99.90;;;;;;5098385;27;37877;-59
2022/09/10 10:48:39;;;;;;;20.75;13.68;;;17.80;99.90;;;;;;5098909;27;38292;-59
2022/09/10 10:51:17;;;;;;;19.85;14.73;;;17.80;99.90;;;;;;5098505;27;37358;-59
2022/09/10 10:54:02;;;;;;;20.67;13.55;;;17.80;99.90;;;;;;5099774;27;38285;-59
2022/09/10 10:56:34;;;;;;;20.55;14.05;;;17.80;99.90;;;;;;5099104;27;38460;-59
2022/09/10 10:59:23;;;;;;;19.83;14.00;;;17.80;99.90;;;;;;5097623;27;36818;-59
2022/09/10 11:01:55;;;;;;;20.70;13.68;;;17.80;99.90;;;;;;5099675;27;36867;-59
2022/09/10 11:04:29;;;;;;;18.67;13.80;;;17.80;99.90;;;;;;5101070;27;39342;-59
2022/09/10 11:07:03;;;;;;;18.23;12.63;;;17.80;99.90;;;;;;5099432;27;37885;-58
2022/09/10 11:09:39;;;;;;;21.52;13.95;;;17.80;99.90;;;;;;5099807;27;37086;-59
2022/09/10 11:12:11;;;;;;;20.50;13.23;;;17.80;99.90;;;;;;5099949;27;36300;-59
2022/09/10 11:14:44;;;;;;;20.50;13.60;;;17.80;99.90;;;;;;5100186;27;37482;-59
2022/09/10 11:17:15;;;;;;;18.98;13.00;;;17.80;99.90;;;;;;5097321;27;37917;-59
2022/09/10 11:19:47;;;;;;;18.65;12.75;;;17.80;99.90;;;;;;5099662;27;38215;-59
2022/09/10 11:22:19;;;;;;;17.80;13.75;;;17.80;99.90;;;;;;5099014;27;36918;-59
2022/09/10 11:24:53;;;;;;;19.58;12.63;;;17.90;99.90;;;;;;5099108;27;37505;-59
2022/09/10 11:27:24;;;;;;;21.85;13.63;;;17.90;99.90;;;;;;5098929;27;38234;-59
2022/09/10 11:29:57;;;;;;;18.40;13.05;;;17.90;99.90;;;;;;5097036;27;37094;-59
2022/09/10 11:32:31;;;;;;;19.02;12.68;;;18.00;99.90;;;;;;5097930;27;37212;-59
2022/09/10 11:35:07;;;;;;;18.08;12.23;;;18.00;99.90;;;;;;5098374;27;38106;-59
2022/09/10 11:37:49;;;;;;;19.40;13.30;;;18.00;99.90;;;;;;5097834;27;38551;-59
2022/09/10 11:40:24;;;;;;;17.35;12.48;;;18.00;99.90;;;;;;5098657;27;37232;-59
2022/09/10 11:42:56;;;;;;;18.40;13.18;;;18.00;99.90;;;;;;5098757;27;37757;-59
2022/09/10 11:45:32;;;;;;;18.10;11.98;;;18.10;99.90;;;;;;5099116;27;38844;-59
2022/09/10 11:48:07;;;;;;;18.45;13.82;;;18.10;99.90;;;;;;5099373;27;38009;-59
2022/09/10 11:50:41;;;;;;;17.55;12.57;;;18.10;99.90;;;;;;5098597;27;38087;-59
2022/09/10 11:53:13;;;;;;;20.48;13.20;;;18.10;99.90;;;;;;5098705;27;36483;-59
2022/09/10 11:55:56;;;;;;;17.73;12.98;;;18.20;99.90;;;;;;5098520;27;39515;-59
2022/09/10 11:58:33;;;;;;;18.88;13.63;;;18.30;99.90;;;;;;5098176;27;37415;-59
2022/09/10 12:01:12;;;;;;;18.27;12.82;;;18.40;99.90;;;;;;5098864;27;36213;-59
2022/09/10 12:04:01;;;;;;;20.33;13.15;;;18.40;99.90;;;;;;5098040;27;37827;-60
2022/09/10 12:06:37;;;;;;;15.35;11.40;;;18.40;99.90;;;;;;5098655;27;37407;-59
2022/09/10 12:09:12;;;;;;;14.05;10.20;;;18.50;99.90;;;;;;5097098;27;38653;-59
2022/09/10 12:11:51;;;;;;;11.70;8.40;;;18.60;99.90;;;;;;5096633;27;37178;-59
2022/09/10 12:14:20;;;;;;;11.88;8.60;;;18.70;99.90;;;;;;5098153;27;38256;-59
2022/09/10 12:16:51;;;;;;;15.20;9.02;;;18.80;99.90;;;;;;5097101;27;38001;-59
2022/09/10 12:19:26;;;;;;;11.98;8.23;;;18.80;99.90;;;;;;5099371;27;37798;-59
2022/09/10 12:21:57;;;;;;;11.20;7.57;;;18.80;99.90;;;;;;5097677;27;38783;-59
2022/09/10 12:24:30;;;;;;;11.93;8.00;;;18.80;99.90;;;;;;5099319;27;36532;-59
2022/09/10 12:27:00;;;;;;;10.45;7.78;;;18.80;99.90;;;;;;5095733;27;37189;-59
2022/09/10 12:29:33;;;;;;;13.52;8.70;;;18.80;99.90;;;;;;5093329;27;37844;-59
2022/09/10 12:32:36;;;;;;;13.20;7.68;;;18.70;99.90;;;;;;5096274;27;37481;-59
2022/09/10 12:35:46;;;;;;;11.38;7.85;;;18.70;99.90;;;;;;5099529;27;37273;-59
2022/09/10 12:38:51;;;;;;;11.55;8.27;;;18.70;99.90;;;;;;5100613;27;36294;-59
2022/09/10 12:41:57;;;;;;;12.25;8.25;;;18.70;99.90;;;;;;5099977;27;39010;-59
2022/09/10 12:44:46;;;;;;;11.13;7.88;;;18.80;99.90;;;;;;5102417;27;37410;-59
2022/09/10 12:47:39;;;;;;;11.68;7.38;;;18.90;99.90;;;;;;5102829;27;35380;-59